Godman Army Air Field
KFTK : rendu visible

Aérodrome :











RETROUVEZ-NOUS SUR...

 
LOGIN :

S'inscrire | Disclaimer

   EN    FR    IT 

 









Légende :    VFR   VFR Marginal   IFR   IFR Intensif   IFR Très Intensif
Visi : 
Plafond : 
>= 8 km
>= 3000ft
5 à 8 km
1000 à 3000 ft
1500m à 5 km
500 à 1000 ft
800 à 1500m
200 à 500 ft
< 800m
< 200 ft
Symboles :   Orages  Brouillard  Fortes neiges  Fortes précipitations  Vent > 20 kt






- Altitude de l'aérodrome : 756 ft


KFTK - Godman Army Air Field

DERNIER METAR :
  • 150856Z AUTO 00000KT 10SM CLR 20/20 A3005 RMK AO2 SLP172 T02000200 57003

METARs EXPIRÉS :
  • 150756Z AUTO 00000KT 10SM CLR 19/19 A3006 RMK AO2 SLP176 T01900190
  • 150656Z AUTO 00000KT 10SM CLR 20/20 A3006 RMK AO2 SLP175 T01970197

TAF TAF KFTK
Valide du 15 à 09h jusqu'au 16 à 15h UTC


150900Z 1509/1615 VRB06KT 9999 SKC QNH2997INS TX32/1520Z TN19/1511Z
FIR KZID / Amérique du Nord



MET'MAP, la Météo Aéronautique d'un coup d'oeil ! - Copyright ORBIFLY Décembre 2007 - Disclaimer

ORBIFLY MET'MAP TEAM :

Programmation & Développement : Alexandra Zaïnal
Sur une idée originale de : Baudouin d'Aumeries
Assistance à la programmation : Marc-Olivier Méhu
Soutien technique & logistique : Manuel Goepfert

Contact : metmap@orbifly.com




SOURCES & CREDITS :

   NOAA       Earth
Advisory